Time;durP1;ratioP1;P1;durP2;ratioP2;P2;SDS_P1;SDS_P2;PMS_P1;PMS_P2;Temp;Humidity;BMP_temperature;BMP_pressure;BME280_temperature;BME280_humidity;BME280_pressure;Samples;Min_cycle;Max_cycle;Signal;HPM_P1;HPM_P2
2022/05/03 00:00:21;;;;;;;5.10;4.60;;;;;;;9.34;61.47;101847.84;6186091;23;20085;-82
2022/05/03 00:03:43;;;;;;;10.30;5.03;;;;;;;9.33;60.50;101844.34;6186684;23;20001;-81
2022/05/03 00:06:16;;;;;;;6.15;4.65;;;;;;;9.26;61.22;101851.78;6067098;23;20018;-81
2022/05/03 00:09:00;;;;;;;5.05;4.50;;;;;;;9.26;60.97;101854.44;6066283;23;20525;-82
2022/05/03 00:11:51;;;;;;;5.13;4.50;;;;;;;9.25;60.36;101849.22;6142751;23;20009;-81
2022/05/03 00:14:20;;;;;;;6.35;4.82;;;;;;;9.14;61.44;101849.78;6160756;23;20088;-82
2022/05/03 00:16:48;;;;;;;6.75;4.50;;;;;;;9.11;61.66;101849.09;6187290;23;20025;-82
2022/05/03 00:19:14;;;;;;;7.75;5.03;;;;;;;9.03;62.21;101841.59;6187614;23;20434;-81
2022/05/03 00:21:40;;;;;;;5.15;4.65;;;;;;;9.02;62.21;101839.88;6169246;23;20009;-81
2022/05/03 00:24:06;;;;;;;8.68;4.90;;;;;;;8.99;62.26;101832.09;6187802;23;20012;-81
2022/05/03 00:26:32;;;;;;;4.97;4.43;;;;;;;8.98;62.30;101841.00;6187543;23;20001;-81
2022/05/03 00:28:59;;;;;;;6.25;4.90;;;;;;;8.90;62.90;101838.75;6188414;23;20009;-82
2022/05/03 00:31:26;;;;;;;5.32;4.28;;;;;;;8.87;62.92;101845.03;6161424;23;20012;-82
2022/05/03 00:33:53;;;;;;;7.28;4.88;;;;;;;8.85;62.54;101843.44;6188057;23;20001;-82
2022/05/03 00:36:18;;;;;;;7.63;5.03;;;;;;;8.80;63.12;101835.72;6161695;23;20001;-82
2022/05/03 00:38:44;;;;;;;6.50;4.85;;;;;;;8.74;63.04;101828.09;6187849;23;20414;-82
2022/05/03 00:41:13;;;;;;;7.15;4.80;;;;;;;8.70;63.09;101830.06;6187857;23;20167;-82
2022/05/03 00:43:52;;;;;;;6.07;4.75;;;;;;;8.69;62.42;101836.31;6186792;23;20005;-82
2022/05/03 00:46:23;;;;;;;6.93;4.82;;;;;;;8.63;63.31;101833.97;6189088;23;20005;-82
2022/05/03 00:49:16;;;;;;;9.68;5.50;;;;;;;8.64;62.63;101843.63;6164644;23;20382;-82
2022/05/03 00:51:52;;;;;;;7.40;4.70;;;;;;;8.59;63.20;101834.22;6199181;23;20027;-82
2022/05/03 00:54:26;;;;;;;8.13;4.75;;;;;;;8.52;63.49;101834.50;6172236;23;20072;-82
2022/05/03 00:57:17;;;;;;;8.07;4.85;;;;;;;8.51;63.26;101837.28;6192694;23;20005;-82
2022/05/03 01:00:01;;;;;;;5.80;5.30;;;;;;;8.44;63.59;101839.38;6164283;23;20013;-82
2022/05/03 01:02:36;;;;;;;7.10;5.38;;;;;;;8.41;64.38;101839.50;6188210;23;20005;-82
2022/05/03 01:05:09;;;;;;;5.72;4.95;;;;;;;8.39;64.39;101840.50;6188302;23;20001;-82
2022/05/03 01:07:36;;;;;;;8.63;5.10;;;;;;;8.39;64.35;101836.06;6189250;23;20004;-82
2022/05/03 01:10:49;;;;;;;10.90;6.05;;;;;;;8.37;63.83;101837.94;6161805;23;20011;-82
2022/05/03 01:13:29;;;;;;;5.35;4.85;;;;;;;8.33;64.33;101837.25;6184312;23;20080;-82
2022/05/03 01:16:33;;;;;;;6.00;5.28;;;;;;;8.31;64.03;101836.47;6161880;23;20017;-82
2022/05/03 01:19:25;;;;;;;8.98;5.13;;;;;;;8.29;63.93;101832.19;6186885;23;20419;-82
2022/05/03 01:22:08;;;;;;;6.75;5.40;;;;;;;8.22;64.67;101828.97;6186840;23;20707;-83
2022/05/03 01:24:53;;;;;;;6.53;5.30;;;;;;;8.17;64.64;101825.72;6195177;23;20005;-83
2022/05/03 01:27:27;;;;;;;6.50;5.25;;;;;;;8.11;64.97;101829.53;6166397;23;20062;-83
2022/05/03 01:29:57;;;;;;;6.43;5.38;;;;;;;8.05;65.53;101834.28;6161641;23;20020;-83
2022/05/03 01:32:23;;;;;;;6.35;4.97;;;;;;;8.01;65.49;101825.66;6161978;23;20017;-83
2022/05/03 01:34:51;;;;;;;6.40;4.88;;;;;;;8.00;65.38;101828.38;6137719;23;20112;-83
2022/05/03 01:37:37;;;;;;;5.55;5.03;;;;;;;8.00;65.26;101837.16;6188929;23;20330;-83
2022/05/03 01:40:19;;;;;;;5.70;5.15;;;;;;;7.95;65.52;101832.09;6189585;23;20338;-83
2022/05/03 01:43:04;;;;;;;7.47;5.32;;;;;;;7.93;65.64;101833.97;6189149;23;20426;-83
2022/05/03 01:45:51;;;;;;;7.90;5.43;;;;;;;7.88;66.25;101830.69;6189436;23;20378;-83
2022/05/03 01:51:42;;;;;;;6.15;5.55;;;;;;;7.84;65.92;101822.97;6148081;23;20319;-83
2022/05/03 01:54:22;;;;;;;9.00;5.47;;;;;;;7.79;65.61;101823.19;6188978;23;20012;-83
2022/05/03 01:56:58;;;;;;;7.80;5.50;;;;;;;7.71;65.79;101822.72;6187478;23;20005;-83
2022/05/03 02:00:00;;;;;;;6.38;5.53;;;;;;;7.74;65.50;101828.72;6187873;23;20009;-83
2022/05/03 02:02:36;;;;;;;7.80;5.78;;;;;;;7.64;65.98;101821.31;6187891;23;20334;-83
2022/05/03 02:05:08;;;;;;;6.40;5.47;;;;;;;7.62;65.51;101818.72;6190035;23;20441;-83
2022/05/03 02:07:53;;;;;;;9.48;5.43;;;;;;;7.62;65.76;101824.03;6187211;23;20004;-83
2022/05/03 02:10:50;;;;;;;5.80;5.18;;;;;;;7.63;65.59;101825.75;6187169;23;20028;-83
2022/05/03 02:13:27;;;;;;;7.03;5.40;;;;;;;7.58;65.72;101812.75;6187550;23;20008;-83
2022/05/03 02:16:01;;;;;;;7.03;5.22;;;;;;;7.53;66.78;101821.84;6188089;23;20334;-83
2022/05/03 02:18:45;;;;;;;6.50;5.32;;;;;;;7.52;66.41;101820.13;6189211;23;20016;-83
2022/05/03 02:21:29;;;;;;;8.77;5.55;;;;;;;7.49;66.24;101818.47;6164609;23;20013;-83
2022/05/03 02:24:03;;;;;;;5.60;5.10;;;;;;;7.45;66.22;101818.69;6189032;23;20005;-82
2022/05/03 02:26:51;;;;;;;7.13;5.15;;;;;;;7.45;65.85;101824.84;6189651;23;20004;-82
2022/05/03 02:29:25;;;;;;;7.00;5.50;;;;;;;7.41;66.67;101828.53;6189826;23;20005;-82
2022/05/03 02:32:03;;;;;;;9.55;5.60;;;;;;;7.41;66.37;101825.91;6189832;23;20012;-82
2022/05/03 02:34:46;;;;;;;9.07;5.53;;;;;;;7.36;66.95;101827.91;6190026;23;20312;-82
2022/05/03 02:37:18;;;;;;;6.85;5.20;;;;;;;7.34;66.75;101813.91;6164308;23;20342;-82
2022/05/03 02:40:00;;;;;;;6.38;5.45;;;;;;;7.31;66.93;101820.22;6164499;23;20008;-82
2022/05/03 02:42:26;;;;;;;9.68;5.50;;;;;;;7.27;67.08;101813.34;6170422;23;20005;-82
2022/05/03 02:44:56;;;;;;;8.20;5.30;;;;;;;7.22;67.23;101818.00;6196834;23;20001;-82
2022/05/03 02:47:42;;;;;;;8.35;5.65;;;;;;;7.16;66.75;101816.50;6197054;23;20005;-82
2022/05/03 02:50:21;;;;;;;6.00;5.40;;;;;;;7.14;66.83;101814.84;6195683;23;20051;-83
2022/05/03 02:53:07;;;;;;;8.68;5.78;;;;;;;7.10;67.30;101821.22;6209233;23;20013;-82
2022/05/03 02:55:50;;;;;;;6.35;5.22;;;;;;;7.10;66.70;101827.34;6214823;23;20000;-83
2022/05/03 02:58:40;;;;;;;5.50;4.85;;;;;;;7.06;67.48;101825.78;6214169;23;20048;-82
2022/05/03 03:01:49;;;;;;;6.35;5.13;;;;;;;7.06;67.07;101824.91;6199648;23;20001;-83
2022/05/03 03:04:26;;;;;;;6.50;5.30;;;;;;;7.01;67.15;101825.13;6201345;23;20009;-83
2022/05/03 03:06:55;;;;;;;5.72;5.22;;;;;;;6.91;67.62;101819.44;6199344;23;20020;-82
2022/05/03 03:09:25;;;;;;;6.28;5.20;;;;;;;6.92;67.63;101822.91;6192604;23;20080;-82
2022/05/03 03:12:14;;;;;;;6.75;5.00;;;;;;;6.90;66.98;101817.69;6167459;23;20346;-82
2022/05/03 03:14:46;;;;;;;6.75;4.75;;;;;;;6.85;67.84;101827.63;6194872;23;20015;-83
2022/05/03 03:17:17;;;;;;;5.75;5.13;;;;;;;6.83;67.94;101824.19;6194217;23;20005;-82
2022/05/03 03:19:59;;;;;;;5.95;5.22;;;;;;;6.84;67.11;101820.63;6195777;23;20012;-82
2022/05/03 03:22:30;;;;;;;7.35;5.18;;;;;;;6.81;67.88;101823.38;6196773;23;20061;-82
2022/05/03 03:24:57;;;;;;;7.43;5.80;;;;;;;6.77;67.96;101819.19;6195797;23;20423;-82
2022/05/03 03:27:24;;;;;;;6.30;5.30;;;;;;;6.74;68.23;101816.69;6195344;23;20016;-82
2022/05/03 03:29:55;;;;;;;7.93;5.55;;;;;;;6.72;68.38;101821.19;6197675;23;20010;-82
2022/05/03 03:32:22;;;;;;;5.93;5.30;;;;;;;6.67;68.63;101827.50;6165597;23;20013;-83
2022/05/03 03:34:50;;;;;;;5.85;5.25;;;;;;;6.72;68.41;101826.47;6194738;23;20005;-83
2022/05/03 03:37:18;;;;;;;6.90;5.38;;;;;;;6.69;68.02;101816.88;6194621;23;20032;-83
2022/05/03 03:39:43;;;;;;;7.05;5.50;;;;;;;6.71;67.99;101815.03;6164361;23;20013;-83
2022/05/03 03:42:09;;;;;;;8.52;5.65;;;;;;;6.70;68.14;101820.41;6190867;23;20386;-83
2022/05/03 03:44:35;;;;;;;6.05;5.05;;;;;;;6.66;68.07;101814.38;6188987;23;20005;-83
2022/05/03 03:47:02;;;;;;;7.18;5.40;;;;;;;6.66;68.34;101817.00;6190433;23;20013;-83
2022/05/03 03:49:29;;;;;;;7.72;5.55;;;;;;;6.59;67.64;101816.41;6164162;23;20020;-83
2022/05/03 03:51:55;;;;;;;6.32;5.60;;;;;;;6.59;68.41;101816.41;6162998;23;20055;-83
2022/05/03 03:54:21;;;;;;;7.75;5.80;;;;;;;6.59;68.32;101810.28;6191107;23;20009;-83
2022/05/03 03:56:47;;;;;;;7.50;5.60;;;;;;;6.55;68.27;101820.13;6190516;23;20008;-83
2022/05/03 03:59:14;;;;;;;6.13;5.53;;;;;;;6.54;68.00;101820.19;6193220;23;20372;-83
2022/05/03 04:01:40;;;;;;;8.45;5.35;;;;;;;6.50;68.42;101811.56;6194136;23;20005;-83
2022/05/03 04:04:06;;;;;;;8.13;5.78;;;;;;;6.49;68.78;101815.13;6201764;23;20015;-83
2022/05/03 04:06:34;;;;;;;7.53;5.78;;;;;;;6.46;68.87;101815.25;6183685;23;20032;-83
2022/05/03 04:08:59;;;;;;;6.30;5.70;;;;;;;6.41;69.07;101812.84;6197981;23;20431;-83
2022/05/03 04:11:25;;;;;;;8.18;5.97;;;;;;;6.42;69.09;101814.53;6198965;23;20043;-83
2022/05/03 04:13:52;;;;;;;6.82;5.93;;;;;;;6.42;68.97;101818.97;6169964;23;20350;-82
2022/05/03 04:16:21;;;;;;;8.63;6.10;;;;;;;6.40;68.83;101819.03;6199613;23;20001;-83
2022/05/03 04:18:46;;;;;;;6.70;6.00;;;;;;;6.39;69.15;101816.44;6210110;23;20008;-83
2022/05/03 04:21:14;;;;;;;7.95;6.57;;;;;;;6.32;69.52;101821.13;6206689;23;20001;-83
2022/05/03 04:23:40;;;;;;;7.77;6.03;;;;;;;6.35;69.86;101823.66;6204356;23;20009;-83
2022/05/03 04:26:06;;;;;;;8.63;6.38;;;;;;;6.34;69.21;101821.06;6203476;23;20316;-83
2022/05/03 04:28:31;;;;;;;7.78;6.40;;;;;;;6.32;70.00;101828.19;6202642;23;20001;-84
2022/05/03 04:30:56;;;;;;;8.00;5.80;;;;;;;6.32;69.99;101822.94;6204648;23;20045;-83
2022/05/03 04:33:22;;;;;;;9.63;6.72;;;;;;;6.28;70.14;101823.06;6205697;23;19989;-83
2022/05/03 04:35:47;;;;;;;10.10;6.53;;;;;;;6.26;70.47;101818.75;6205524;23;20040;-83
2022/05/03 04:38:13;;;;;;;7.93;6.47;;;;;;;6.30;70.22;101821.19;6207524;23;20016;-83
2022/05/03 04:40:38;;;;;;;8.50;6.32;;;;;;;6.30;70.56;101828.25;6182059;23;20012;-83
2022/05/03 04:43:03;;;;;;;9.32;6.57;;;;;;;6.30;70.13;101829.13;6207116;23;20005;-83
2022/05/03 04:45:29;;;;;;;8.68;6.45;;;;;;;6.29;70.50;101831.81;6205776;23;20005;-83
2022/05/03 04:47:54;;;;;;;8.40;6.95;;;;;;;6.30;70.86;101833.53;6179036;23;20001;-83
2022/05/03 04:50:19;;;;;;;8.35;6.45;;;;;;;6.30;70.87;101834.38;6177953;23;20465;-83
2022/05/03 04:52:45;;;;;;;9.00;6.75;;;;;;;6.35;71.10;101841.28;6202497;23;20013;-83
2022/05/03 04:55:13;;;;;;;8.57;6.90;;;;;;;6.37;71.06;101842.06;6204825;23;20016;-82
2022/05/03 04:57:38;;;;;;;7.70;6.67;;;;;;;6.41;71.10;101843.63;6204944;23;20011;-83
2022/05/03 05:00:05;;;;;;;11.32;7.32;;;;;;;6.41;71.03;101844.50;6184712;23;19991;-83
2022/05/03 05:02:30;;;;;;;8.27;7.03;;;;;;;6.43;70.66;101833.88;6212295;23;20052;-82
2022/05/03 05:04:55;;;;;;;11.38;7.32;;;;;;;6.48;70.37;101840.66;6182159;23;20005;-83
2022/05/03 05:07:20;;;;;;;10.45;6.80;;;;;;;6.50;70.99;101834.47;6204828;23;20005;-83
2022/05/03 05:12:33;;;;;;;8.32;7.38;;;;;;;6.63;70.64;101848.84;6205456;23;20020;-83
2022/05/03 05:14:58;;;;;;;8.75;6.70;;;;;;;6.72;71.12;101850.22;6202209;23;20009;-83
2022/05/03 05:17:23;;;;;;;10.25;7.18;;;;;;;6.80;71.15;101845.47;6173418;23;20007;-82
2022/05/03 05:19:48;;;;;;;7.75;6.75;;;;;;;6.87;70.74;101841.59;6198924;23;20012;-82
2022/05/03 05:22:14;;;;;;;10.48;7.18;;;;;;;7.04;70.15;101852.28;6197861;23;20008;-82
2022/05/03 05:24:39;;;;;;;9.73;6.82;;;;;;;7.17;69.74;101852.56;6196060;23;20016;-82
2022/05/03 05:27:05;;;;;;;10.55;6.70;;;;;;;7.33;69.76;101854.50;6196719;23;20005;-82
2022/05/03 05:29:31;;;;;;;9.77;7.72;;;;;;;7.43;69.63;101855.78;6200095;23;20055;-83
2022/05/03 05:31:56;;;;;;;9.57;6.88;;;;;;;7.59;69.19;101855.88;6206229;23;20005;-82
2022/05/03 05:34:21;;;;;;;10.48;6.93;;;;;;;7.75;68.73;101854.22;6207744;23;19997;-83
2022/05/03 05:36:47;;;;;;;8.90;7.22;;;;;;;7.92;68.12;101865.78;6177102;23;20005;-83
2022/05/03 05:39:12;;;;;;;8.93;7.20;;;;;;;8.04;67.61;101866.97;6200459;23;20024;-83
2022/05/03 05:41:38;;;;;;;10.32;7.20;;;;;;;8.20;67.69;101872.34;6200247;23;20009;-82
2022/05/03 05:44:04;;;;;;;11.20;7.50;;;;;;;8.24;67.25;101871.25;6198152;23;20501;-82
2022/05/03 05:46:30;;;;;;;12.45;7.32;;;;;;;8.40;67.12;101863.41;6198845;23;20032;-82
2022/05/03 05:48:55;;;;;;;8.68;6.80;;;;;;;8.46;66.44;101871.94;6200659;23;20056;-82
2022/05/03 05:51:21;;;;;;;8.30;7.00;;;;;;;8.54;66.40;101873.31;6202425;23;20346;-82
2022/05/03 05:53:46;;;;;;;9.60;7.20;;;;;;;8.58;66.53;101875.72;6194874;23;20005;-82
2022/05/03 05:56:12;;;;;;;7.95;7.15;;;;;;;8.58;66.58;101872.22;6190906;23;20008;-83
2022/05/03 05:58:37;;;;;;;7.38;6.68;;;;;;;8.63;66.96;101876.34;6193350;23;20071;-83
2022/05/03 06:01:03;;;;;;;8.45;7.07;;;;;;;8.60;66.87;101870.34;6194045;23;20017;-83
2022/05/03 06:03:29;;;;;;;9.57;6.65;;;;;;;8.60;66.77;101862.41;6196777;23;20023;-84
2022/05/03 06:05:59;;;;;;;10.15;7.25;;;;;;;8.62;66.43;101869.31;6196877;23;20035;-83
2022/05/03 06:08:24;;;;;;;9.13;6.78;;;;;;;8.63;66.08;101868.41;6193839;23;20012;-82
2022/05/03 06:10:50;;;;;;;7.60;6.80;;;;;;;8.65;66.39;101863.03;6195065;23;20005;-82
2022/05/03 06:13:21;;;;;;;8.20;6.93;;;;;;;8.66;66.37;101872.66;6171313;23;20441;-82
2022/05/03 06:15:49;;;;;;;7.82;6.75;;;;;;;8.71;66.14;101875.97;6167884;23;20024;-82
2022/05/03 06:18:14;;;;;;;9.40;6.93;;;;;;;8.74;66.44;101877.56;6170956;23;20040;-83
2022/05/03 06:20:39;;;;;;;9.15;6.63;;;;;;;8.81;65.96;101878.94;6177478;23;20005;-82
2022/05/03 06:23:05;;;;;;;12.07;7.80;;;;;;;8.87;65.83;101876.00;6201947;23;20005;-83
2022/05/03 06:25:30;;;;;;;10.13;6.78;;;;;;;8.96;65.02;101885.25;6199746;23;20368;-84
2022/05/03 06:27:55;;;;;;;10.80;6.70;;;;;;;9.05;63.65;101877.66;6175434;23;20304;-83
2022/05/03 06:30:21;;;;;;;7.35;6.50;;;;;;;9.17;63.64;101881.44;6196476;23;20015;-82
2022/05/03 06:32:46;;;;;;;7.95;6.68;;;;;;;9.31;62.57;101879.84;6173164;23;20099;-82
2022/05/03 06:35:13;;;;;;;9.35;6.20;;;;;;;9.39;61.94;101878.50;6171884;23;20013;-82
2022/05/03 06:37:40;;;;;;;10.00;6.50;;;;;;;9.58;61.62;101867.72;6197744;23;20032;-83
2022/05/03 06:40:10;;;;;;;8.20;6.05;;;;;;;9.71;59.80;101869.66;6197205;23;20080;-82
2022/05/03 06:42:40;;;;;;;11.13;7.03;;;;;;;9.99;61.14;101871.59;6170552;23;20001;-82
2022/05/03 06:45:06;;;;;;;9.93;6.03;;;;;;;10.11;59.01;101870.91;6197561;23;20009;-82
2022/05/03 06:47:32;;;;;;;7.93;5.97;;;;;;;10.27;59.26;101862.03;6194100;23;20005;-82
2022/05/03 06:49:57;;;;;;;5.80;5.13;;;;;;;10.48;57.15;101874.06;6195300;23;20016;-82
2022/05/03 06:52:23;;;;;;;8.57;5.03;;;;;;;10.67;55.68;101880.91;6195978;23;20005;-82
2022/05/03 06:54:49;;;;;;;8.57;5.28;;;;;;;10.84;56.20;101872.78;6197199;23;20013;-83
2022/05/03 06:57:14;;;;;;;7.43;5.07;;;;;;;10.97;55.79;101875.53;6169253;23;20021;-82
2022/05/03 06:59:39;;;;;;;6.07;4.88;;;;;;;11.06;52.83;101872.31;6200095;23;20044;-82
2022/05/03 07:02:06;;;;;;;7.95;4.80;;;;;;;11.22;51.62;101874.84;6199381;23;20081;-84
2022/05/03 07:04:34;;;;;;;8.05;4.70;;;;;;;11.44;52.19;101882.34;6203618;23;20008;-84
2022/05/03 07:07:00;;;;;;;6.03;4.00;;;;;;;11.75;50.77;101885.69;6182614;23;20017;-83
2022/05/03 07:09:25;;;;;;;4.40;4.00;;;;;;;11.96;48.71;101883.47;6205901;23;20065;-82
2022/05/03 07:11:51;;;;;;;9.05;4.57;;;;;;;12.29;48.82;101889.31;6199131;23;20011;-81
2022/05/03 07:14:16;;;;;;;5.50;3.90;;;;;;;12.68;47.73;101883.06;6190803;23;20311;-81
2022/05/03 07:16:42;;;;;;;5.13;3.90;;;;;;;13.02;46.49;101886.06;6159646;23;20005;-81
2022/05/03 07:22:45;;;;;;;3.20;2.90;;;;;;;13.51;41.94;101887.94;6158687;23;20072;-81
2022/05/03 07:24:55;;;;;;;4.95;3.33;;;;;;;13.91;41.45;101878.81;6158013;23;20010;-81
2022/05/03 07:27:20;;;;;;;5.40;3.03;;;;;;;14.15;40.40;101878.78;6158318;23;20404;-80
2022/05/03 07:29:45;;;;;;;6.05;3.20;;;;;;;14.46;40.61;101876.47;6132219;23;20348;-80
2022/05/03 07:32:11;;;;;;;3.70;3.10;;;;;;;14.87;40.03;101882.28;6158608;23;20017;-81
2022/05/03 07:34:39;;;;;;;3.17;2.75;;;;;;;15.27;39.18;101890.69;6158063;23;20466;-81
2022/05/03 07:37:04;;;;;;;4.30;2.80;;;;;;;15.54;37.21;101889.44;6132309;23;20020;-80
2022/05/03 07:39:30;;;;;;;6.05;2.97;;;;;;;15.85;36.92;101879.78;6157384;23;20439;-81
2022/05/03 07:41:59;;;;;;;4.13;3.03;;;;;;;16.16;36.24;101885.25;6158137;23;20010;-80
2022/05/03 07:44:26;;;;;;;2.60;2.37;;;;;;;16.56;36.74;101884.56;6158037;23;20002;-80
2022/05/03 07:46:52;;;;;;;5.88;2.47;;;;;;;16.69;33.98;101886.19;6158337;23;20748;-79
2022/05/03 07:49:17;;;;;;;3.45;2.90;;;;;;;16.88;33.64;101880.94;6132079;23;20005;-79
2022/05/03 07:51:43;;;;;;;3.78;2.60;;;;;;;17.07;32.36;101876.66;6158063;23;20010;-81
2022/05/03 07:54:09;;;;;;;4.27;2.87;;;;;;;17.41;33.54;101873.69;6157191;23;20501;-81
2022/05/03 07:56:37;;;;;;;3.55;2.83;;;;;;;17.66;32.50;101872.31;6128646;23;20303;-81
2022/05/03 07:59:03;;;;;;;3.60;3.08;;;;;;;17.83;32.51;101877.00;6157717;23;20001;-83
2022/05/03 08:01:32;;;;;;;3.53;2.83;;;;;;;18.11;33.10;101871.81;6157187;23;20020;-80
2022/05/03 08:03:57;;;;;;;4.97;3.22;;;;;;;18.33;31.56;101877.88;6131860;23;20010;-80
2022/05/03 08:06:27;;;;;;;4.68;3.80;;;;;;;18.51;31.70;101870.78;6157579;23;20021;-80
2022/05/03 08:08:52;;;;;;;3.50;3.20;;;;;;;18.73;32.41;101876.81;6131181;23;20367;-80
2022/05/03 08:11:20;;;;;;;7.28;3.67;;;;;;;18.82;32.07;101871.41;6159062;23;20006;-81
2022/05/03 08:13:45;;;;;;;3.83;3.47;;;;;;;19.03;31.13;101873.06;6134449;23;20108;-81
2022/05/03 08:16:19;;;;;;;5.72;3.42;;;;;;;19.21;31.67;101868.56;6161579;23;20390;-82
2022/05/03 08:18:44;;;;;;;5.68;3.65;;;;;;;19.48;31.31;101876.81;6160192;23;20001;-81
2022/05/03 08:21:12;;;;;;;4.72;3.58;;;;;;;19.62;32.24;101873.63;6161592;23;20128;-82
2022/05/03 08:23:38;;;;;;;4.10;3.72;;;;;;;19.82;31.32;101877.06;6164167;23;20012;-81
2022/05/03 08:26:05;;;;;;;4.90;3.60;;;;;;;19.91;32.17;101872.56;6164974;23;20013;-81
2022/05/03 08:28:30;;;;;;;5.35;4.00;;;;;;;20.23;31.61;101877.41;6162504;23;20055;-83
2022/05/03 08:30:55;;;;;;;5.25;3.78;;;;;;;20.38;30.90;101877.69;6161150;23;20001;-82
2022/05/03 08:33:21;;;;;;;5.43;4.07;;;;;;;20.56;30.95;101880.34;6164354;23;20005;-82
2022/05/03 08:35:46;;;;;;;4.35;3.95;;;;;;;20.70;29.68;101882.53;6164966;23;20002;-82
2022/05/03 08:43:39;;;;;;;6.35;4.75;;;;;;;21.32;29.73;101880.63;6161099;23;20071;-82
2022/05/03 08:46:08;;;;;;;5.32;4.82;;;;;;;21.28;29.10;101873.84;6159050;23;20470;-82
2022/05/03 08:48:37;;;;;;;5.13;4.63;;;;;;;21.38;29.76;101879.97;6159393;23;20001;-82
2022/05/03 08:51:03;;;;;;;7.63;4.80;;;;;;;21.50;29.33;101878.72;6159486;23;20511;-82
2022/05/03 08:53:29;;;;;;;7.80;4.50;;;;;;;21.81;29.47;101883.50;6159342;23;20049;-83
2022/05/03 08:55:55;;;;;;;6.05;4.80;;;;;;;22.05;28.45;101881.81;6156388;23;20001;-82
2022/05/03 08:58:21;;;;;;;5.22;4.72;;;;;;;22.06;28.14;101881.66;6156996;23;20013;-82
2022/05/03 09:00:47;;;;;;;7.25;5.03;;;;;;;22.17;28.25;101875.09;6160020;23;20006;-82
2022/05/03 09:03:12;;;;;;;9.45;5.05;;;;;;;22.37;29.60;101874.78;6136152;23;20476;-82
2022/05/03 09:05:39;;;;;;;6.05;4.78;;;;;;;22.42;29.45;101883.22;6134041;23;20006;-82
2022/05/03 09:08:08;;;;;;;6.28;5.57;;;;;;;22.78;28.80;101872.81;6123584;23;20061;-83
2022/05/03 09:10:39;;;;;;;5.70;5.07;;;;;;;23.01;28.59;101874.78;6150192;23;20006;-83
2022/05/03 09:13:22;;;;;;;5.35;4.85;;;;;;;23.08;28.63;101871.25;6115948;23;20026;-84
2022/05/03 09:15:51;;;;;;;5.70;5.05;;;;;;;22.88;28.83;101876.19;6130339;23;20041;-85
2022/05/03 09:18:20;;;;;;;9.00;5.00;;;;;;;22.98;28.90;101875.13;6101336;23;20383;-84
2022/05/03 09:26:21;;;;;;;5.65;5.22;;;;;;;23.44;28.13;101875.31;6119849;23;20029;-83
2022/05/03 09:28:55;;;;;;;5.78;5.22;;;;;;;23.61;27.96;101876.91;6122628;23;20085;-83
2022/05/03 09:31:35;;;;;;;10.80;5.40;;;;;;;23.90;29.17;101879.97;6121575;23;20014;-82
2022/05/03 09:34:10;;;;;;;7.40;4.93;;;;;;;23.86;27.87;101878.66;6123047;23;20092;-83
2022/05/03 09:36:52;;;;;;;6.60;5.13;;;;;;;24.04;29.20;101868.34;6127587;23;20153;-82
2022/05/03 09:39:24;;;;;;;6.07;4.72;;;;;;;23.97;28.58;101870.09;6106399;23;20094;-83
2022/05/03 09:42:07;;;;;;;7.70;4.95;;;;;;;24.08;29.14;101872.38;6128819;23;20010;-83
2022/05/03 09:44:36;;;;;;;5.35;4.85;;;;;;;23.90;28.45;101874.53;6120217;23;20010;-82
2022/05/03 09:47:06;;;;;;;6.18;5.05;;;;;;;23.81;28.17;101871.88;6127025;23;20470;-83
2022/05/03 09:49:40;;;;;;;6.60;5.22;;;;;;;23.86;28.38;101865.91;6126502;23;20010;-82
2022/05/03 09:52:07;;;;;;;6.18;5.57;;;;;;;24.11;27.85;101863.03;6127037;23;20478;-82
2022/05/03 09:54:46;;;;;;;8.25;5.55;;;;;;;24.34;28.93;101868.44;6100578;23;20044;-82
2022/05/03 09:57:22;;;;;;;8.80;6.28;;;;;;;24.59;28.61;101869.06;6126583;23;20404;-83
2022/05/03 09:59:49;;;;;;;5.38;4.88;;;;;;;24.72;28.06;101871.13;6126838;23;20006;-83
2022/05/03 10:02:19;;;;;;;7.55;5.28;;;;;;;24.93;28.62;101867.66;6126908;23;20077;-82
2022/05/03 10:04:45;;;;;;;8.48;5.75;;;;;;;25.20;27.93;101866.16;6103010;23;20006;-83
2022/05/03 10:07:14;;;;;;;5.15;4.57;;;;;;;25.19;27.34;101860.91;6156737;23;20032;-83
2022/05/03 10:09:42;;;;;;;8.07;5.13;;;;;;;25.24;26.53;101859.28;6156111;23;20451;-83
2022/05/03 10:12:09;;;;;;;5.70;5.07;;;;;;;25.43;27.30;101860.59;6155579;23;20006;-83
2022/05/03 10:14:35;;;;;;;8.05;5.32;;;;;;;25.49;27.06;101856.25;6129907;23;20002;-83
2022/05/03 10:22:37;;;;;;;8.30;5.18;;;;;;;25.47;27.60;101852.91;6155499;23;20474;-82
2022/05/03 10:25:04;;;;;;;5.13;4.63;;;;;;;25.61;27.00;101848.44;6155945;23;20013;-82
2022/05/03 10:27:32;;;;;;;5.22;4.15;;;;;;;25.61;26.61;101859.31;6155347;23;20012;-82
2022/05/03 10:30:14;;;;;;;4.55;4.15;;;;;;;25.77;27.57;101844.63;6155505;23;20006;-84
2022/05/03 10:32:39;;;;;;;5.03;4.25;;;;;;;25.58;26.49;101841.53;6157176;23;20080;-85
2022/05/03 10:35:34;;;;;;;5.05;4.50;;;;;;;25.85;27.16;101844.50;6161270;23;20539;-82
2022/05/03 10:37:59;;;;;;;7.68;4.80;;;;;;;25.71;26.58;101837.25;6161356;23;20006;-83
2022/05/03 10:40:40;;;;;;;5.60;5.00;;;;;;;25.78;27.38;101836.28;6161806;23;20002;-81
2022/05/03 10:43:11;;;;;;;5.25;4.65;;;;;;;25.48;26.73;101832.84;6159544;23;20056;-82
2022/05/03 10:45:53;;;;;;;5.95;4.90;;;;;;;25.76;27.49;101837.50;6160754;23;20005;-84
2022/05/03 10:48:26;;;;;;;6.47;5.10;;;;;;;25.81;26.67;101833.19;6161611;23;20005;-81
2022/05/03 10:51:05;;;;;;;5.80;4.72;;;;;;;26.04;26.66;101832.97;6161698;23;20058;-81
2022/05/03 10:53:33;;;;;;;6.40;5.70;;;;;;;26.04;26.18;101832.13;6161538;23;20009;-82
2022/05/03 10:56:04;;;;;;;7.50;5.00;;;;;;;26.43;26.57;101829.91;6160873;23;20384;-82
2022/05/03 10:58:34;;;;;;;6.53;5.20;;;;;;;26.34;26.45;101826.50;6163713;23;20029;-82
2022/05/03 11:01:11;;;;;;;5.38;4.72;;;;;;;26.50;27.29;101822.66;6161142;23;20001;-83
2022/05/03 11:03:48;;;;;;;5.95;4.32;;;;;;;26.27;27.10;101825.63;6165100;23;20016;-83
2022/05/03 11:06:20;;;;;;;5.57;4.50;;;;;;;26.25;27.32;101824.97;6162706;23;20060;-83
2022/05/03 11:08:57;;;;;;;4.93;3.60;;;;;;;25.94;26.59;101820.72;6139028;23;20012;-86
2022/05/03 11:11:44;;;;;;;4.47;4.18;;;;;;;25.89;27.29;101813.13;6164356;23;20087;-84
2022/05/03 11:14:21;;;;;;;4.95;4.45;;;;;;;26.16;26.89;101806.06;6166260;23;20058;-84
2022/05/03 11:17:11;;;;;;;5.38;4.88;;;;;;;26.20;26.01;101806.50;6168979;23;19997;-84
2022/05/03 11:19:48;;;;;;;6.55;4.90;;;;;;;26.40;26.47;101803.94;6148245;23;20033;-83
2022/05/03 11:22:15;;;;;;;5.30;4.13;;;;;;;26.43;25.81;101800.81;6172691;23;20036;-84
2022/05/03 11:24:42;;;;;;;5.00;4.50;;;;;;;26.56;25.93;101806.34;6164054;23;20022;-85
2022/05/03 11:27:09;;;;;;;4.45;4.05;;;;;;;26.66;26.67;101797.81;6159598;23;20037;-84
2022/05/03 11:29:41;;;;;;;5.25;4.53;;;;;;;26.68;26.34;101806.66;6131463;23;20427;-84
2022/05/03 11:32:07;;;;;;;5.72;5.10;;;;;;;26.74;25.99;101805.81;6159400;23;20002;-84
2022/05/03 11:34:34;;;;;;;6.47;5.07;;;;;;;26.77;26.12;101794.53;6134266;23;20049;-83
2022/05/03 11:37:00;;;;;;;6.80;6.18;;;;;;;26.31;26.20;101797.81;6161874;23;20080;-84
2022/05/03 11:39:25;;;;;;;4.97;4.50;;;;;;;26.30;25.90;101787.94;6135904;23;20006;-84
2022/05/03 11:41:54;;;;;;;7.22;3.80;;;;;;;26.60;27.58;101784.97;6159476;23;20048;-83
2022/05/03 11:44:19;;;;;;;;;;;;;;;27.16;27.49;101792.16;6174423;23;20001;-84
2022/05/03 11:46:47;;;;;;;3.10;2.80;;;;;;;26.76;24.55;101790.13;6179554;23;19915;-83
2022/05/03 11:49:15;;;;;;;5.00;3.50;;;;;;;26.93;24.88;101774.25;6152737;23;20018;-83
2022/05/03 11:57:21;;;;;;;5.32;4.82;;;;;;;26.46;27.05;101775.03;6162428;23;20293;-83
2022/05/03 11:59:51;;;;;;;6.70;4.85;;;;;;;26.13;26.47;101771.06;6168157;23;20017;-84
2022/05/03 12:02:18;;;;;;;8.23;5.20;;;;;;;25.93;26.85;101772.75;6141452;23;20010;-83
2022/05/03 12:05:10;;;;;;;5.70;4.88;;;;;;;25.87;27.32;101768.13;6166569;23;20006;-83
2022/05/03 12:07:40;;;;;;;5.32;4.57;;;;;;;25.42;27.94;101776.50;6168174;23;20514;-85
2022/05/03 12:10:19;;;;;;;5.63;4.22;;;;;;;25.30;27.79;101768.00;6162484;23;20486;-82
2022/05/03 12:13:05;;;;;;;4.40;4.00;;;;;;;24.82;28.28;101773.88;6133141;23;20013;-83
2022/05/03 12:15:31;;;;;;;4.45;4.05;;;;;;;24.47;28.44;101765.44;6117193;23;20021;-83
2022/05/03 12:18:11;;;;;;;4.65;3.75;;;;;;;24.24;28.28;101768.22;6143184;23;20085;-83